Time;durP1;ratioP1;P1;durP2;ratioP2;P2;SDS_P1;SDS_P2;PMS_P1;PMS_P2;Temp;Humidity;BMP_temperature;BMP_pressure;BME280_temperature;BME280_humidity;BME280_pressure;Samples;Min_cycle;Max_cycle;Signal;HPM_P1;HPM_P2
2022/11/01 00:03:59;;;;;;;;;1.00;0.75;;;;;17.80;62.02;100416.38;4954060;28;45776;-79
2022/11/01 00:06:25;;;;;;;;;0.25;0.25;;;;;17.77;61.93;100411.38;4955623;28;45577;-82
2022/11/01 00:08:50;;;;;;;;;0.00;0.00;;;;;17.76;61.58;100415.84;4955705;28;45638;-80
2022/11/01 00:11:17;;;;;;;;;0.25;0.00;;;;;17.77;61.23;100427.28;4955623;28;45586;-79
2022/11/01 00:13:48;;;;;;;;;0.25;0.00;;;;;17.67;61.52;100427.41;4955945;28;45793;-78
2022/11/01 00:16:15;;;;;;;;;1.75;0.25;;;;;17.64;61.32;100429.53;4954967;28;46719;-79
2022/11/01 00:18:41;;;;;;;;;1.00;0.00;;;;;17.59;60.60;100427.34;4955207;28;46585;-82
2022/11/01 00:21:07;;;;;;;;;1.00;0.00;;;;;17.60;61.13;100439.63;4955365;28;45601;-81
2022/11/01 00:23:32;;;;;;;;;0.00;0.00;;;;;17.63;60.46;100449.06;4970266;28;45962;-82
2022/11/01 00:25:59;;;;;;;;;0.00;0.00;;;;;17.59;60.63;100446.75;4955322;28;47250;-81
2022/11/01 00:28:24;;;;;;;;;0.25;0.00;;;;;17.56;60.16;100456.78;4956077;28;45975;-80
2022/11/01 00:34:12;;;;;;;;;1.00;0.00;;;;;17.29;60.40;100454.31;4955654;28;45446;-80
2022/11/01 00:36:38;;;;;;;;;1.00;0.00;;;;;17.36;59.84;100482.69;4955433;28;45610;-81
2022/11/01 00:39:05;;;;;;;;;0.00;0.00;;;;;17.26;59.83;100478.47;4955717;28;45873;-82
2022/11/01 00:41:30;;;;;;;;;0.00;0.00;;;;;17.15;59.67;100471.59;4955893;28;45555;-82
2022/11/01 00:43:56;;;;;;;;;2.25;0.00;;;;;17.15;59.83;100480.38;4955623;28;45783;-84
2022/11/01 00:46:21;;;;;;;;;0.00;0.00;;;;;17.15;59.87;100498.09;4955130;28;46334;-80
2022/11/01 00:48:46;;;;;;;;;1.00;0.00;;;;;17.10;60.12;100501.19;4955361;28;45483;-81
2022/11/01 00:51:12;;;;;;;;;0.00;0.00;;;;;17.03;59.84;100497.50;4955340;28;45506;-78
2022/11/01 00:53:37;;;;;;;;;0.00;0.00;;;;;16.94;59.68;100492.28;4955272;28;45398;-81
2022/11/01 00:56:04;;;;;;;;;0.00;0.00;;;;;16.85;59.73;100509.91;4954950;28;47351;-81
2022/11/01 00:58:30;;;;;;;;;0.00;0.00;;;;;16.66;58.54;100500.31;4955629;28;46404;-82
2022/11/01 01:04:17;;;;;;;;;1.00;0.00;;;;;16.55;58.24;100545.47;4954821;28;45704;-81
2022/11/01 01:06:43;;;;;;;;;0.00;0.00;;;;;16.44;58.35;100527.16;4955102;28;45585;-80
2022/11/01 01:09:10;;;;;;;;;0.00;0.00;;;;;16.45;57.90;100541.22;4954918;28;45533;-81
2022/11/01 01:11:35;;;;;;;;;1.75;0.00;;;;;16.38;58.50;100554.19;4955134;28;45506;-81
2022/11/01 01:14:01;;;;;;;;;1.00;0.00;;;;;16.33;58.60;100569.66;4955158;28;45733;-80
2022/11/01 01:16:26;;;;;;;;;0.00;0.00;;;;;16.28;58.76;100558.69;4954703;28;45738;-79
2022/11/01 01:18:51;;;;;;;;;0.00;0.00;;;;;16.20;58.66;100564.69;4954593;28;46484;-79
2022/11/01 01:21:17;;;;;;;;;1.00;0.00;;;;;16.15;58.85;100564.31;4954609;28;45769;-79
2022/11/01 01:23:42;;;;;;;;;0.00;0.00;;;;;16.10;58.86;100555.97;4954768;28;45566;-79
2022/11/01 01:26:09;;;;;;;;;1.00;0.00;;;;;16.09;58.69;100566.69;4954116;28;46472;-82
2022/11/01 01:28:36;;;;;;;;;1.00;0.00;;;;;16.09;58.91;100564.03;4954707;28;45980;-78
2022/11/01 01:34:23;;;;;;;;;0.00;0.00;;;;;16.02;58.54;100577.03;4954630;28;45771;-78
2022/11/01 01:36:48;;;;;;;;;0.00;0.00;;;;;15.94;59.01;100576.91;4969201;28;47415;-79
2022/11/01 01:39:13;;;;;;;;;1.00;0.00;;;;;15.95;59.16;100587.34;4956071;28;46171;-78
2022/11/01 01:41:57;;;;;;;;;0.25;0.25;;;;;15.84;58.86;100573.47;4958249;28;45596;-77
2022/11/01 01:44:50;;;;;;;;;0.00;0.00;;;;;15.88;59.02;100602.09;4958004;28;45620;-78
2022/11/01 01:47:28;;;;;;;;;1.00;0.00;;;;;15.85;58.68;100596.28;4957627;28;47536;-76
2022/11/01 01:50:01;;;;;;;;;1.00;0.00;;;;;15.77;58.36;100596.13;4957596;28;46234;-81
2022/11/01 01:52:29;;;;;;;;;0.00;0.00;;;;;15.74;58.46;100597.28;4957998;28;45840;-76
2022/11/01 01:54:56;;;;;;;;;0.75;0.00;;;;;15.72;58.40;100599.22;4957861;28;45622;-78
2022/11/01 01:57:23;;;;;;;;;0.00;0.00;;;;;15.71;58.16;100608.09;4957539;28;45431;-74
2022/11/01 01:59:49;;;;;;;;;0.00;0.00;;;;;15.71;58.23;100621.31;4957835;28;45851;-77
2022/11/01 02:02:16;;;;;;;;;0.00;0.00;;;;;15.64;58.21;100628.16;4957293;28;45553;-77
2022/11/01 02:04:50;;;;;;;;;0.25;0.00;;;;;15.56;58.50;100638.56;4957431;28;45715;-75
2022/11/01 02:07:16;;;;;;;;;0.00;0.00;;;;;15.55;58.21;100644.03;4957806;28;45656;-83
2022/11/01 02:09:42;;;;;;;;;0.00;0.00;;;;;15.49;58.46;100640.09;4957867;28;46093;-83
2022/11/01 02:12:11;;;;;;;;;0.00;0.00;;;;;15.46;58.70;100650.94;4958350;28;45561;-80
2022/11/01 02:14:41;;;;;;;;;0.00;0.00;;;;;15.39;58.84;100641.88;4958569;28;45600;-82
2022/11/01 02:17:32;;;;;;;;;0.25;0.00;;;;;15.43;58.75;100654.69;4957155;28;47551;-78
2022/11/01 02:20:31;;;;;;;;;1.00;0.00;;;;;15.46;58.96;100664.13;4916560;28;46366;-80
2022/11/01 02:23:35;;;;;;;;;1.00;0.00;;;;;15.48;58.97;100670.13;4859853;29;45749;-77
2022/11/01 02:26:31;;;;;;;;;0.00;0.00;;;;;15.44;59.11;100664.25;4860085;29;45579;-80
2022/11/01 02:29:00;;;;;;;;;0.00;0.00;;;;;15.36;59.28;100673.84;4860020;29;46574;-80
2022/11/01 02:31:25;;;;;;;;;0.75;0.00;;;;;15.31;59.20;100679.56;4859820;29;47271;-81
2022/11/01 02:33:57;;;;;;;;;0.00;0.00;;;;;15.29;59.31;100684.13;4859962;29;46147;-81
2022/11/01 02:36:28;;;;;;;;;0.50;0.00;;;;;15.25;59.39;100695.94;4859767;29;45722;-83
2022/11/01 02:39:00;;;;;;;;;0.00;0.00;;;;;15.17;59.13;100695.75;4843858;29;47713;-79
2022/11/01 02:41:33;;;;;;;;;2.00;0.00;;;;;15.15;59.57;100694.25;4859818;29;45585;-81
2022/11/01 02:44:03;;;;;;;;;0.00;0.00;;;;;15.11;59.44;100691.06;4859648;29;45711;-82
2022/11/01 02:47:02;;;;;;;;;1.00;0.00;;;;;14.98;59.07;100677.25;4859663;29;45679;-77
2022/11/01 02:49:36;;;;;;;;;1.00;0.00;;;;;14.98;59.15;100696.56;4858714;29;47844;-80
2022/11/01 02:52:04;;;;;;;;;1.00;0.00;;;;;14.93;59.25;100700.59;4858716;29;46096;-81
2022/11/01 02:54:38;;;;;;;;;0.00;0.00;;;;;14.91;59.15;100703.34;4859331;29;45614;-79
2022/11/01 02:57:16;;;;;;;;;1.75;0.00;;;;;14.87;59.47;100711.66;4882416;29;45998;-80
2022/11/01 02:59:46;;;;;;;;;1.00;0.00;;;;;14.82;59.45;100708.59;4936921;28;45633;-79
2022/11/01 03:02:38;;;;;;;;;0.00;0.00;;;;;14.78;59.57;100717.75;4956558;28;45752;-83
2022/11/01 03:05:05;;;;;;;;;0.50;0.00;;;;;14.79;59.63;100719.44;4956673;28;45472;-82
2022/11/01 03:07:31;;;;;;;;;1.75;0.50;;;;;14.76;59.68;100720.50;4956833;28;45506;-82
2022/11/01 03:09:56;;;;;;;;;0.75;0.00;;;;;14.73;59.83;100733.97;4939079;28;45969;-80
2022/11/01 03:12:31;;;;;;;;;0.00;0.00;;;;;14.74;59.78;100727.72;4956393;28;46910;-77
2022/11/01 03:18:31;;;;;;;;;0.75;0.00;;;;;14.73;59.81;100723.44;4877824;28;45706;-79
2022/11/01 03:21:14;;;;;;;;;0.00;0.00;;;;;14.60;59.89;100710.47;4878257;29;46492;-80
2022/11/01 03:23:48;;;;;;;;;0.75;0.00;;;;;14.75;59.64;100739.09;4878297;29;46152;-81
2022/11/01 03:26:20;;;;;;;;;0.75;0.00;;;;;14.71;60.06;100743.81;4878476;29;45687;-80
2022/11/01 03:28:52;;;;;;;;;0.75;0.00;;;;;14.70;59.78;100756.16;4877978;29;45537;-82
2022/11/01 03:34:40;;;;;;;;;0.00;0.00;;;;;14.64;59.62;100751.41;4877413;28;45999;-78
2022/11/01 03:37:10;;;;;;;;;0.00;0.00;;;;;14.66;60.18;100761.84;4877602;29;45606;-77
2022/11/01 03:39:42;;;;;;;;;1.00;1.00;;;;;14.62;59.86;100752.53;4877526;29;45895;-79
2022/11/01 03:42:13;;;;;;;;;1.00;0.00;;;;;14.65;59.91;100757.53;4877649;29;46399;-80
2022/11/01 03:44:45;;;;;;;;;1.00;0.00;;;;;14.64;60.37;100755.84;4877472;29;46078;-81
2022/11/01 03:50:32;;;;;;;;;0.25;0.00;;;;;14.60;60.26;100759.72;4877367;29;45718;-82
2022/11/01 03:52:58;;;;;;;;;0.50;0.00;;;;;14.56;60.15;100769.72;4877358;29;45767;-78
2022/11/01 03:55:24;;;;;;;;;0.75;0.00;;;;;14.55;60.12;100777.75;4936166;28;46181;-82
2022/11/01 03:57:54;;;;;;;;;0.00;0.00;;;;;14.54;60.28;100791.88;4955488;28;45668;-81
2022/11/01 04:00:32;;;;;;;;;0.00;0.00;;;;;14.52;60.41;100807.81;4956105;28;45613;-79
2022/11/01 04:06:33;;;;;;;;;1.50;0.00;;;;;14.39;60.84;100801.09;4954331;28;46019;-82
2022/11/01 04:08:58;;;;;;;;;0.25;0.00;;;;;14.36;61.00;100815.31;4957730;28;45553;-79
2022/11/01 04:11:23;;;;;;;;;0.25;0.25;;;;;14.33;60.71;100817.38;4957491;28;45547;-77
2022/11/01 04:13:49;;;;;;;;;0.00;0.00;;;;;14.38;60.90;100818.69;4957193;28;45609;-79
2022/11/01 04:21:42;;;;;;;;;0.00;0.00;;;;;14.29;60.79;100838.75;4955843;28;45816;-79
2022/11/01 04:24:08;;;;;;;;;1.00;0.00;;;;;14.33;60.97;100854.28;4955361;28;46499;-76
2022/11/01 04:26:34;;;;;;;;;0.00;0.00;;;;;14.31;61.08;100851.75;4955355;28;46518;-79
2022/11/01 04:28:59;;;;;;;;;1.50;0.00;;;;;14.25;60.61;100847.03;4955462;28;45562;-78
2022/11/01 04:31:30;;;;;;;;;2.75;1.00;;;;;14.15;60.91;100841.66;4955371;28;45716;-82
2022/11/01 04:33:57;;;;;;;;;0.50;0.00;;;;;14.20;60.98;100854.44;4955822;28;46399;-81
2022/11/01 04:36:22;;;;;;;;;0.00;0.00;;;;;14.27;60.84;100874.91;4955693;28;45701;-81
2022/11/01 04:38:50;;;;;;;;;0.00;0.00;;;;;14.23;60.74;100873.50;4955806;28;45569;-82
2022/11/01 04:41:17;;;;;;;;;0.00;0.00;;;;;14.24;60.83;100885.72;4955175;28;45748;-80
2022/11/01 04:43:43;;;;;;;;;1.50;0.00;;;;;14.25;60.82;100881.28;4954965;28;47305;-81
2022/11/01 04:46:08;;;;;;;;;1.00;0.25;;;;;14.22;60.94;100886.78;4954874;28;46044;-78
2022/11/01 04:48:34;;;;;;;;;4.50;0.00;;;;;14.16;60.66;100880.22;4954904;28;45634;-78
2022/11/01 04:51:01;;;;;;;;;1.00;0.50;;;;;14.20;60.81;100889.53;4955389;28;45708;-77
2022/11/01 04:53:27;;;;;;;;;3.00;0.00;;;;;14.21;60.84;100888.59;4955238;28;46554;-78
2022/11/01 04:55:52;;;;;;;;;1.00;1.00;;;;;14.25;60.89;100897.09;4954541;28;46096;-81
2022/11/01 04:58:18;;;;;;;;;0.50;0.00;;;;;14.24;60.79;100903.31;4954213;28;45782;-81
2022/11/01 05:00:43;;;;;;;;;1.25;1.00;;;;;14.23;61.05;100901.66;4955442;28;45682;-79
2022/11/01 05:06:30;;;;;;;;;2.00;1.00;;;;;14.24;61.60;100913.88;4953837;28;45722;-79
2022/11/01 05:08:56;;;;;;;;;0.00;0.00;;;;;14.23;61.28;100917.47;4954887;28;45572;-81
2022/11/01 05:11:24;;;;;;;;;0.00;0.00;;;;;14.22;61.57;100915.78;4954424;28;45558;-79
2022/11/01 05:13:50;;;;;;;;;0.75;0.00;;;;;14.18;61.93;100909.94;4956466;28;46659;-81
2022/11/01 05:16:16;;;;;;;;;2.00;0.75;;;;;14.20;61.57;100913.25;4957794;28;47109;-79
2022/11/01 05:22:03;;;;;;;;;1.75;0.25;;;;;14.19;61.88;100930.06;4958811;28;45729;-81
2022/11/01 05:24:29;;;;;;;;;1.25;0.00;;;;;14.19;61.66;100931.84;4958425;28;45742;-79
2022/11/01 05:26:54;;;;;;;;;0.00;0.00;;;;;14.08;61.75;100910.81;4941380;28;46330;-79
2022/11/01 05:29:19;;;;;;;;;1.00;0.00;;;;;14.08;61.83;100911.66;4958961;28;45635;-80
2022/11/01 05:31:45;;;;;;;;;3.25;0.00;;;;;14.20;62.01;100929.06;4958872;28;45679;-79
2022/11/01 05:34:10;;;;;;;;;1.00;0.00;;;;;14.19;61.62;100934.50;4958454;28;45926;-79
2022/11/01 05:36:36;;;;;;;;;0.00;0.00;;;;;14.22;61.99;100944.78;4960160;28;46047;-79
2022/11/01 05:39:01;;;;;;;;;1.50;0.00;;;;;14.21;62.15;100949.19;4961961;28;45559;-82
2022/11/01 05:41:27;;;;;;;;;0.00;0.00;;;;;14.21;62.23;100951.00;4964102;28;45580;-78
2022/11/01 05:43:52;;;;;;;;;2.50;0.50;;;;;14.19;62.26;100940.59;4961689;28;45463;-78
2022/11/01 05:46:17;;;;;;;;;2.75;0.00;;;;;14.20;61.97;100957.22;4961533;28;45541;-82
2022/11/01 05:52:04;;;;;;;;;1.00;0.00;;;;;14.17;61.89;100957.47;4958981;28;45597;-81
2022/11/01 05:54:29;;;;;;;;;1.00;1.00;;;;;14.16;62.03;100956.66;4958929;28;45609;-77
2022/11/01 05:56:55;;;;;;;;;2.00;0.25;;;;;14.01;62.01;100933.31;4958970;28;46943;-79
2022/11/01 05:59:20;;;;;;;;;2.00;0.75;;;;;14.10;62.19;100949.22;4960073;28;46056;-77
2022/11/01 06:01:45;;;;;;;;;1.00;1.00;;;;;14.02;62.38;100938.47;4957946;28;45601;-81
2022/11/01 06:04:11;;;;;;;;;1.00;0.50;;;;;14.13;62.40;100972.72;4958150;28;46559;-80
2022/11/01 06:06:36;;;;;;;;;0.75;0.00;;;;;13.95;62.62;100941.72;4957448;28;45682;-78
2022/11/01 06:09:02;;;;;;;;;1.00;0.00;;;;;13.98;62.71;100942.28;4957373;28;45985;-81
2022/11/01 06:11:27;;;;;;;;;1.75;0.00;;;;;14.06;62.71;100962.78;4957620;28;46011;-81
2022/11/01 06:13:54;;;;;;;;;4.00;1.00;;;;;13.94;62.81;100947.94;4957100;28;46407;-80
2022/11/01 06:16:19;;;;;;;;;1.50;1.00;;;;;14.02;62.58;100962.19;4956648;28;46298;-81
2022/11/01 06:22:06;;;;;;;;;1.50;1.00;;;;;13.94;62.43;100961.09;4957424;28;45581;-81
2022/11/01 06:24:32;;;;;;;;;0.75;0.00;;;;;13.93;62.51;100968.16;4957078;28;45625;-81
2022/11/01 06:26:57;;;;;;;;;1.00;1.00;;;;;13.96;62.48;100967.09;4957131;28;46140;-79
2022/11/01 06:29:23;;;;;;;;;2.00;1.00;;;;;13.96;62.50;100975.84;4957122;28;45515;-78
2022/11/01 06:31:48;;;;;;;;;1.75;1.00;;;;;13.91;62.90;100983.28;4957450;28;45506;-80
2022/11/01 06:37:35;;;;;;;;;1.00;0.25;;;;;13.94;62.66;100988.28;4958100;28;45917;-83
2022/11/01 06:40:01;;;;;;;;;1.25;0.25;;;;;13.84;62.60;100985.56;4957725;28;45682;-82
2022/11/01 06:42:26;;;;;;;;;1.00;0.75;;;;;13.91;62.74;101008.78;4957696;28;45594;-76
2022/11/01 06:44:51;;;;;;;;;0.75;0.00;;;;;13.91;62.68;100992.97;4956941;28;46227;-76
2022/11/01 06:47:17;;;;;;;;;2.00;1.00;;;;;13.90;63.04;101004.47;4956881;28;45566;-75
2022/11/01 06:49:42;;;;;;;;;1.00;1.00;;;;;13.79;63.30;100995.59;4956814;28;45660;-75
2022/11/01 06:52:07;;;;;;;;;3.00;0.00;;;;;13.79;63.09;101005.31;4956999;28;45597;-77
2022/11/01 06:54:33;;;;;;;;;0.50;0.00;;;;;13.59;63.19;100979.69;4956622;28;46910;-74
2022/11/01 06:56:58;;;;;;;;;3.50;1.00;;;;;13.81;62.89;101022.69;4956524;28;45902;-76
2022/11/01 06:59:23;;;;;;;;;3.25;1.00;;;;;13.81;63.24;101019.19;4956653;28;45629;-78
2022/11/01 07:01:50;;;;;;;;;2.25;0.75;;;;;13.79;63.17;101019.31;4956546;28;45745;-79
2022/11/01 07:07:37;;;;;;;;;0.00;0.00;;;;;13.80;63.26;101028.91;4954457;28;45900;-77
2022/11/01 07:10:04;;;;;;;;;2.00;0.00;;;;;13.80;63.03;101031.53;4956252;28;45472;-77
2022/11/01 07:12:29;;;;;;;;;2.25;0.75;;;;;13.81;63.53;101030.56;4956364;28;45774;-78
2022/11/01 07:14:54;;;;;;;;;1.50;0.75;;;;;13.82;63.60;101029.59;4955796;28;47255;-77
2022/11/01 07:17:20;;;;;;;;;1.00;0.00;;;;;13.78;63.54;101025.53;4956272;28;46214;-76
2022/11/01 07:23:13;;;;;;;;;2.00;1.25;;;;;13.81;63.74;101041.13;4956304;28;45690;-78
2022/11/01 07:25:39;;;;;;;;;2.75;1.00;;;;;13.86;63.27;101053.91;4956277;28;46392;-77
2022/11/01 07:28:04;;;;;;;;;2.75;1.00;;;;;13.82;63.19;101044.56;4956093;28;45688;-78
2022/11/01 07:30:30;;;;;;;;;3.00;0.00;;;;;13.81;63.52;101054.28;4956011;28;45720;-78
2022/11/01 07:33:00;;;;;;;;;3.00;1.00;;;;;13.88;63.36;101063.38;4955969;28;45843;-78
2022/11/01 07:35:26;;;;;;;;;0.00;0.00;;;;;13.83;63.43;101057.63;4955873;28;46199;-78
2022/11/01 07:37:54;;;;;;;;;2.00;0.75;;;;;13.78;63.35;101041.34;4954901;28;47286;-77
2022/11/01 07:40:26;;;;;;;;;1.00;1.00;;;;;13.84;62.98;101056.66;4956234;28;45843;-77
2022/11/01 07:42:53;;;;;;;;;1.00;0.00;;;;;13.95;63.24;101082.16;4955863;28;45517;-79
2022/11/01 07:45:19;;;;;;;;;1.25;0.25;;;;;13.88;63.36;101065.16;4955682;28;45554;-77
2022/11/01 07:54:28;;;;;;;;;3.00;1.75;;;;;13.91;63.29;101064.94;4955685;28;45736;-78
2022/11/01 07:56:53;;;;;;;;;1.00;0.50;;;;;14.02;63.14;101079.91;4955513;28;45484;-81
2022/11/01 07:59:18;;;;;;;;;0.75;0.75;;;;;14.06;63.10;101091.88;4955411;28;47275;-78
2022/11/01 08:01:44;;;;;;;;;0.75;0.50;;;;;14.07;63.35;101090.91;4955770;28;45575;-77
2022/11/01 08:04:09;;;;;;;;;1.25;0.00;;;;;14.08;63.03;101097.88;4955842;28;45698;-79
2022/11/01 08:06:34;;;;;;;;;2.25;0.00;;;;;14.11;62.88;101100.25;4955399;28;46376;-77
2022/11/01 08:09:00;;;;;;;;;1.00;0.25;;;;;14.11;63.02;101101.09;4955601;28;46013;-77
2022/11/01 08:11:26;;;;;;;;;1.25;0.25;;;;;14.13;62.79;101098.34;4955637;28;45535;-77
2022/11/01 08:13:51;;;;;;;;;1.25;0.25;;;;;14.05;63.10;101080.50;4955878;28;45708;-78
2022/11/01 08:16:17;;;;;;;;;1.25;1.00;;;;;14.17;63.07;101107.69;4955490;28;46711;-77
2022/11/01 08:18:42;;;;;;;;;0.00;0.00;;;;;14.20;62.86;101100.38;4955473;28;45791;-75
2022/11/01 08:21:08;;;;;;;;;3.25;1.25;;;;;14.15;63.00;101092.00;4955543;28;45663;-77
2022/11/01 08:23:33;;;;;;;;;0.75;0.50;;;;;14.25;62.76;101108.75;4938437;28;45586;-77
2022/11/01 08:25:59;;;;;;;;;0.00;0.00;;;;;14.26;62.92;101113.06;4955255;28;45557;-78
2022/11/01 08:28:28;;;;;;;;;2.00;0.00;;;;;14.28;62.71;101100.63;4955513;28;45924;-79
2022/11/01 08:30:56;;;;;;;;;1.00;0.00;;;;;14.30;62.62;101101.31;4955285;28;45712;-79
2022/11/01 08:33:22;;;;;;;;;1.00;0.75;;;;;14.32;62.73;101098.56;4956232;28;45638;-77
2022/11/01 08:35:47;;;;;;;;;0.00;0.00;;;;;14.35;62.50;101097.50;4955236;28;45563;-82
2022/11/01 08:38:15;;;;;;;;;1.75;0.50;;;;;14.36;62.85;101092.09;4955331;28;45612;-79
2022/11/01 08:40:40;;;;;;;;;3.25;1.00;;;;;14.36;62.69;101081.53;4955774;28;45844;-80
2022/11/01 08:43:06;;;;;;;;;1.50;1.00;;;;;14.43;62.63;101090.69;4955880;28;45535;-83
2022/11/01 08:45:31;;;;;;;;;1.00;0.00;;;;;14.45;62.56;101101.13;4955141;28;47014;-83
2022/11/01 08:48:02;;;;;;;;;2.00;1.00;;;;;14.46;62.47;101087.81;4955385;28;46167;-82
2022/11/01 08:53:49;;;;;;;;;2.25;1.00;;;;;14.47;62.52;101086.00;4958675;28;45577;-80
2022/11/01 08:56:14;;;;;;;;;2.00;1.00;;;;;14.49;62.24;101081.44;4958426;28;45650;-79
2022/11/01 08:58:40;;;;;;;;;1.25;1.00;;;;;14.59;62.31;101095.56;4958587;28;45589;-80
2022/11/01 09:01:05;;;;;;;;;1.75;1.00;;;;;14.63;62.13;101102.28;4957112;28;45818;-79
2022/11/01 09:03:30;;;;;;;;;1.50;1.00;;;;;14.63;61.94;101095.19;4958657;28;45618;-81
2022/11/01 09:05:56;;;;;;;;;4.75;1.00;;;;;14.70;62.23;101095.56;4958350;28;46514;-80
2022/11/01 09:08:21;;;;;;;;;1.00;0.25;;;;;14.74;61.85;101094.34;4957985;28;45634;-82
2022/11/01 09:10:46;;;;;;;;;2.00;1.00;;;;;14.78;61.95;101090.50;4958459;28;45608;-77
2022/11/01 09:13:12;;;;;;;;;1.00;1.00;;;;;14.82;61.62;101102.50;4958387;28;45636;-79
2022/11/01 09:15:37;;;;;;;;;1.50;0.00;;;;;14.86;61.59;101101.28;4958358;28;46227;-81
2022/11/01 09:18:06;;;;;;;;;4.00;1.00;;;;;14.90;61.70;101097.41;4957912;28;46005;-79
2022/11/01 09:23:53;;;;;;;;;3.50;1.75;;;;;14.94;61.40;101101.50;4958353;28;45677;-79
2022/11/01 09:26:19;;;;;;;;;1.25;0.00;;;;;14.99;61.23;101104.59;4958148;28;46343;-83
2022/11/01 09:28:44;;;;;;;;;0.25;0.25;;;;;15.00;61.06;101102.81;4958246;28;45828;-81
2022/11/01 09:31:11;;;;;;;;;2.00;0.25;;;;;15.02;61.14;101099.06;4957908;28;45810;-77
2022/11/01 09:33:37;;;;;;;;;1.00;1.00;;;;;15.11;60.91;101118.59;4958391;28;45519;-81
2022/11/01 09:39:24;;;;;;;;;2.00;0.50;;;;;15.19;60.95;101123.22;4957555;28;45939;-80
2022/11/01 09:42:06;;;;;;;;;0.00;0.00;;;;;15.19;60.87;101120.59;4957724;28;45703;-78
2022/11/01 09:44:41;;;;;;;;;6.00;2.50;;;;;15.27;60.99;101118.19;4957842;28;45657;-78
2022/11/01 09:47:22;;;;;;;;;2.25;1.25;;;;;15.27;60.91;101116.38;4957738;28;46504;-82
2022/11/01 09:49:52;;;;;;;;;1.75;1.25;;;;;15.35;60.57;101128.91;4957758;28;46253;-80
2022/11/01 09:52:21;;;;;;;;;1.00;0.00;;;;;15.37;60.56;101129.66;4957544;28;45703;-75
2022/11/01 09:54:47;;;;;;;;;1.25;0.00;;;;;15.41;60.06;101120.50;4957898;28;45581;-79
2022/11/01 09:57:21;;;;;;;;;3.00;0.00;;;;;15.42;60.01;101124.81;4940186;28;46906;-77
2022/11/01 10:00:00;;;;;;;;;2.50;1.00;;;;;15.43;60.01;101139.72;4957449;28;45872;-80
2022/11/01 10:02:59;;;;;;;;;1.50;0.00;;;;;15.46;59.93;101134.16;4940297;28;45586;-80
2022/11/01 10:05:39;;;;;;;;;2.00;1.00;;;;;15.48;59.83;101130.44;4957214;28;45701;-82
2022/11/01 10:08:10;;;;;;;;;1.00;1.00;;;;;15.52;59.72;101133.69;4956862;28;46680;-79
2022/11/01 10:10:36;;;;;;;;;0.75;0.75;;;;;15.55;59.75;101136.06;4955922;28;47189;-77
2022/11/01 10:13:22;;;;;;;;;2.00;0.00;;;;;15.59;59.61;101140.13;4957492;28;45610;-79
2022/11/01 10:15:58;;;;;;;;;1.00;0.25;;;;;15.63;59.72;101135.44;4957394;28;45588;-77
2022/11/01 10:18:36;;;;;;;;;2.50;0.50;;;;;15.58;59.49;101114.69;4957131;28;46850;-80
2022/11/01 10:21:08;;;;;;;;;0.25;0.00;;;;;15.69;59.66;101124.34;4957373;28;46225;-79
2022/11/01 10:23:44;;;;;;;;;2.50;0.00;;;;;15.63;59.21;101120.41;4957383;28;45508;-78
2022/11/01 10:26:16;;;;;;;;;1.75;0.00;;;;;15.66;59.25;101114.84;4957450;28;45705;-82
2022/11/01 10:28:53;;;;;;;;;2.00;0.00;;;;;15.83;59.19;101137.22;4957230;28;45613;-82
2022/11/01 10:31:23;;;;;;;;;1.00;0.00;;;;;15.86;58.76;101155.47;4957261;28;45881;-81
2022/11/01 10:33:54;;;;;;;;;4.00;1.00;;;;;15.88;58.85;101151.72;4957380;28;45765;-80
2022/11/01 10:36:29;;;;;;;;;2.00;1.00;;;;;15.94;58.97;101137.16;4957237;28;45589;-81
2022/11/01 10:39:05;;;;;;;;;1.00;0.25;;;;;15.94;58.78;101132.69;4957244;28;46569;-81
2022/11/01 10:41:51;;;;;;;;;2.00;0.00;;;;;16.03;58.62;101135.53;4956985;28;45906;-78
2022/11/01 10:44:26;;;;;;;;;1.00;0.00;;;;;16.07;58.36;101127.22;4957391;28;45644;-79
2022/11/01 10:46:53;;;;;;;;;2.25;1.00;;;;;16.12;58.14;101132.94;4957349;28;45511;-78
2022/11/01 10:53:02;;;;;;;;;1.00;1.00;;;;;16.24;57.79;101133.69;4957022;28;45995;-79
2022/11/01 10:55:46;;;;;;;;;0.75;0.75;;;;;16.27;57.64;101110.47;4954589;28;45798;-80
2022/11/01 10:58:36;;;;;;;;;2.00;1.00;;;;;16.32;57.60;101113.53;4956873;28;45809;-76
2022/11/01 11:01:08;;;;;;;;;1.00;0.00;;;;;16.37;57.48;101113.13;4956576;28;45670;-80
2022/11/01 11:03:33;;;;;;;;;1.75;0.50;;;;;16.42;57.23;101118.03;4956415;28;47227;-78
2022/11/01 11:09:37;;;;;;;;;2.00;0.75;;;;;16.46;57.33;101115.00;4955131;28;46530;-80
2022/11/01 11:12:08;;;;;;;;;1.00;0.75;;;;;16.54;57.44;101111.66;4955247;28;46631;-76
2022/11/01 11:14:35;;;;;;;;;1.00;1.00;;;;;16.58;57.17;101121.84;4956731;28;46285;-77
2022/11/01 11:17:07;;;;;;;;;0.00;0.00;;;;;16.61;56.91;101126.06;4956598;28;45694;-76
2022/11/01 11:19:37;;;;;;;;;2.75;0.75;;;;;16.59;56.70;101109.47;4956496;28;45587;-78
2022/11/01 11:25:32;;;;;;;;;3.00;1.00;;;;;16.71;56.80;101116.34;4955935;28;45967;-77
2022/11/01 11:27:59;;;;;;;;;1.00;0.00;;;;;16.71;56.63;101106.59;4955971;28;45677;-78
2022/11/01 11:30:33;;;;;;;;;0.00;0.00;;;;;16.83;56.50;101114.41;4956228;28;45577;-78
2022/11/01 11:33:00;;;;;;;;;0.75;0.75;;;;;16.91;56.41;101111.91;4955907;28;47396;-77
2022/11/01 11:35:28;;;;;;;;;1.00;0.75;;;;;16.98;56.28;101113.03;4955721;28;47345;-77
2022/11/01 11:37:53;;;;;;;;;2.00;1.00;;;;;17.07;56.13;101123.63;4955857;28;45725;-76
2022/11/01 11:40:23;;;;;;;;;2.50;0.50;;;;;17.16;56.33;101122.00;4956315;28;45544;-79
2022/11/01 11:42:50;;;;;;;;;0.00;0.00;;;;;17.22;55.88;101112.66;4955723;28;47382;-76
2022/11/01 11:45:21;;;;;;;;;2.25;1.00;;;;;17.30;56.04;101103.03;4955696;28;46933;-78
2022/11/01 11:47:46;;;;;;;;;2.00;0.00;;;;;17.17;55.67;101065.38;4955609;28;45650;-77
2022/11/01 11:50:18;;;;;;;;;1.00;1.00;;;;;17.40;56.30;101103.84;4956021;28;45764;-77
2022/11/01 11:52:44;;;;;;;;;2.00;1.00;;;;;17.45;55.61;101100.75;4955810;28;45677;-77
2022/11/01 11:55:51;;;;;;;;;1.25;1.00;;;;;17.43;56.04;101084.19;4955632;28;45629;-78
2022/11/01 11:58:21;;;;;;;;;2.25;1.00;;;;;17.49;55.95;101083.63;4877258;29;45685;-77
2022/11/01 12:00:50;;;;;;;;;3.00;0.50;;;;;17.55;55.64;101091.00;4877397;29;45900;-77
2022/11/01 12:03:16;;;;;;;;;1.00;0.50;;;;;17.59;56.09;101089.75;4877016;29;46348;-80
2022/11/01 12:05:58;;;;;;;;;1.00;1.00;;;;;17.65;55.82;101099.81;4876726;29;47018;-78
2022/11/01 12:08:46;;;;;;;;;1.00;0.00;;;;;17.74;56.00;101098.13;4876716;29;45685;-80
2022/11/01 12:11:13;;;;;;;;;2.50;1.00;;;;;17.77;55.66;101090.69;4877073;29;45793;-81
2022/11/01 12:13:58;;;;;;;;;2.25;1.00;;;;;17.83;54.77;101089.28;4876942;29;46442;-80
2022/11/01 12:16:23;;;;;;;;;1.00;0.00;;;;;17.87;54.08;101077.41;4876675;29;47012;-78
2022/11/01 12:18:53;;;;;;;;;2.25;1.00;;;;;17.87;54.46;101072.09;4876762;29;45754;-80
2022/11/01 12:21:34;;;;;;;;;4.00;1.00;;;;;17.93;54.08;101075.03;4877058;29;45925;-78
2022/11/01 12:24:11;;;;;;;;;2.50;1.25;;;;;17.95;54.53;101066.94;4877757;29;45752;-75
2022/11/01 12:26:38;;;;;;;;;0.25;0.00;;;;;18.02;54.22;101073.34;4876806;29;47088;-78
2022/11/01 12:29:14;;;;;;;;;2.00;0.00;;;;;18.10;54.52;101078.72;4876975;29;45775;-78
2022/11/01 12:31:43;;;;;;;;;1.50;1.00;;;;;18.14;54.00;101072.16;4877254;29;45667;-77
2022/11/01 12:34:29;;;;;;;;;3.00;1.50;;;;;18.22;54.34;101066.13;4897968;28;46830;-78
2022/11/01 12:36:59;;;;;;;;;1.00;1.00;;;;;18.26;53.57;101059.53;4935268;28;46270;-77
2022/11/01 12:39:54;;;;;;;;;3.00;1.00;;;;;18.28;53.81;101068.19;4936214;28;45661;-80
2022/11/01 12:42:27;;;;;;;;;3.00;1.00;;;;;18.33;53.94;101071.22;4936689;28;45658;-80
2022/11/01 12:45:01;;;;;;;;;1.00;0.75;;;;;18.33;53.63;101071.22;4936020;28;46852;-80
2022/11/01 12:47:35;;;;;;;;;1.50;0.00;;;;;18.34;53.01;101067.59;4935791;28;47165;-79
2022/11/01 12:50:17;;;;;;;;;3.00;1.00;;;;;18.33;53.30;101069.41;4934487;28;45732;-78
2022/11/01 12:53:03;;;;;;;;;0.25;0.25;;;;;18.28;53.29;101042.50;4936714;28;45717;-81
2022/11/01 12:55:38;;;;;;;;;1.00;1.00;;;;;18.33;52.72;101069.41;4939817;28;45613;-80
2022/11/01 12:58:08;;;;;;;;;2.00;1.00;;;;;18.23;52.52;101050.06;4938534;28;47555;-82